Time;durP1;ratioP1;P1;durP2;ratioP2;P2;SDS_P1;SDS_P2;PMS_P1;PMS_P2;Temp;Humidity;BMP_temperature;BMP_pressure;BME280_temperature;BME280_humidity;BME280_pressure;Samples;Min_cycle;Max_cycle;Signal;HPM_P1;HPM_P2
2021/12/03 00:01:57;;;;;;;19.47;10.53;;;;;;;-0.31;94.72;101029.47;5024969;28;20033;-58
2021/12/03 00:04:23;;;;;;;24.20;11.57;;;;;;;-0.30;95.14;101028.56;5015362;28;20041;-58
2021/12/03 00:06:48;;;;;;;19.73;12.00;;;;;;;-0.31;95.13;101025.09;5023529;28;20033;-59
2021/12/03 00:09:13;;;;;;;23.67;12.27;;;;;;;-0.33;94.99;101031.31;5018437;28;20069;-59
2021/12/03 00:11:40;;;;;;;21.40;12.13;;;;;;;-0.32;95.01;101027.78;5023798;28;20038;-58
2021/12/03 00:14:05;;;;;;;20.20;12.20;;;;;;;-0.34;95.06;101027.03;5030890;28;20424;-58
2021/12/03 00:16:30;;;;;;;19.53;12.53;;;;;;;-0.32;95.47;101030.38;5022733;28;20053;-58
2021/12/03 00:18:56;;;;;;;24.17;12.93;;;;;;;-0.31;95.04;101032.06;5022265;28;20036;-58
2021/12/03 00:21:22;;;;;;;20.53;13.17;;;;;;;-0.35;94.82;101027.97;5022859;28;20045;-59
2021/12/03 00:23:47;;;;;;;23.37;13.50;;;;;;;-0.34;95.01;101032.25;5015918;28;20038;-59
2021/12/03 00:26:13;;;;;;;24.77;13.77;;;;;;;-0.34;95.06;101034.88;5016689;28;20121;-58
2021/12/03 00:28:39;;;;;;;27.30;14.17;;;;;;;-0.37;95.14;101035.00;5022813;28;20029;-58
2021/12/03 00:31:07;;;;;;;26.03;14.60;;;;;;;-0.38;95.20;101033.34;5024750;28;20070;-58
2021/12/03 00:33:33;;;;;;;23.90;14.47;;;;;;;-0.39;95.11;101036.88;5027620;28;20737;-58
2021/12/03 00:36:04;;;;;;;25.00;14.63;;;;;;;-0.39;95.67;101035.13;5028963;28;20029;-58
2021/12/03 00:38:30;;;;;;;25.53;14.87;;;;;;;-0.39;95.08;101042.09;5023383;28;20066;-59
2021/12/03 00:40:55;;;;;;;26.73;14.77;;;;;;;-0.40;95.34;101036.03;5018618;28;20110;-58
2021/12/03 00:43:21;;;;;;;24.20;15.10;;;;;;;-0.39;95.61;101036.88;5030362;28;20037;-58
2021/12/03 00:45:46;;;;;;;26.10;15.77;;;;;;;-0.44;95.76;101035.34;5015245;28;20496;-58
2021/12/03 00:48:12;;;;;;;25.73;15.40;;;;;;;-0.43;95.67;101041.41;5027950;28;20052;-58
2021/12/03 00:50:37;;;;;;;25.80;15.40;;;;;;;-0.44;95.89;101040.56;5025001;28;20087;-59
2021/12/03 00:53:03;;;;;;;28.20;16.47;;;;;;;-0.48;96.00;101044.28;5018477;28;20476;-59
2021/12/03 00:55:30;;;;;;;30.03;16.37;;;;;;;-0.48;95.55;101043.44;5018831;28;20025;-58
2021/12/03 00:57:56;;;;;;;26.70;16.67;;;;;;;-0.46;95.86;101039.81;5019434;28;20026;-58
2021/12/03 01:00:25;;;;;;;28.03;16.87;;;;;;;-0.48;95.90;101046.91;5015227;28;20036;-58
2021/12/03 01:02:54;;;;;;;31.53;17.30;;;;;;;-0.44;95.70;101052.78;5023040;28;20048;-59
2021/12/03 01:05:19;;;;;;;31.40;18.03;;;;;;;-0.46;96.45;101055.47;5018837;28;20152;-58
2021/12/03 01:07:45;;;;;;;29.53;18.80;;;;;;;-0.46;96.04;101052.00;5020790;28;20033;-58
2021/12/03 01:10:10;;;;;;;33.20;19.47;;;;;;;-0.48;96.02;101049.50;5013245;28;20082;-58
2021/12/03 01:12:37;;;;;;;31.10;19.77;;;;;;;-0.47;95.90;101051.19;5023343;28;20155;-59
2021/12/03 01:15:05;;;;;;;37.53;20.10;;;;;;;-0.48;96.12;101059.91;5023313;28;20026;-59
2021/12/03 01:17:30;;;;;;;34.70;21.87;;;;;;;-0.45;96.10;101054.53;5015286;28;20139;-58
2021/12/03 01:19:56;;;;;;;38.80;22.97;;;;;;;-0.46;96.42;101057.22;5023721;28;20053;-59
2021/12/03 01:22:21;;;;;;;36.97;23.77;;;;;;;-0.45;96.00;101059.75;5014526;28;20033;-58
2021/12/03 01:24:46;;;;;;;41.57;24.50;;;;;;;-0.43;95.94;101063.09;5017829;28;20021;-59
2021/12/03 01:27:12;;;;;;;37.90;25.03;;;;;;;-0.46;96.00;101063.28;5018884;28;20022;-58
2021/12/03 01:29:37;;;;;;;38.00;24.03;;;;;;;-0.46;96.06;101068.47;5019424;28;20087;-58
2021/12/03 01:32:02;;;;;;;36.03;22.77;;;;;;;-0.44;95.87;101071.00;5018388;28;20025;-58
2021/12/03 01:34:28;;;;;;;37.40;23.73;;;;;;;-0.47;96.37;101061.59;5019768;28;20032;-58
2021/12/03 01:36:53;;;;;;;37.27;22.97;;;;;;;-0.49;96.30;101067.81;5021811;28;20457;-58
2021/12/03 01:39:19;;;;;;;37.27;22.07;;;;;;;-0.47;96.68;101063.34;5023435;28;20112;-58
2021/12/03 01:41:44;;;;;;;38.23;22.33;;;;;;;-0.49;96.36;101063.44;5024267;28;20057;-59
2021/12/03 01:44:10;;;;;;;35.97;21.60;;;;;;;-0.47;96.41;101063.34;5020679;28;20037;-58
2021/12/03 01:46:36;;;;;;;39.80;22.33;;;;;;;-0.51;96.74;101065.28;5026835;28;20057;-58
2021/12/03 01:49:04;;;;;;;36.87;21.17;;;;;;;-0.49;96.90;101053.00;5016206;28;20033;-58
2021/12/03 01:51:29;;;;;;;37.60;21.73;;;;;;;-0.47;96.93;101051.19;5023975;28;20495;-59
2021/12/03 01:53:55;;;;;;;37.90;22.07;;;;;;;-0.45;96.85;101049.31;5019629;28;20108;-59
2021/12/03 01:56:21;;;;;;;35.00;22.47;;;;;;;-0.45;97.01;101043.28;5015034;28;20109;-57
2021/12/03 01:58:49;;;;;;;41.30;23.63;;;;;;;-0.46;97.27;101047.63;5023003;28;20115;-59
2021/12/03 02:01:21;;;;;;;43.53;25.23;;;;;;;-0.37;96.77;101045.44;5018105;28;20172;-59
2021/12/03 02:03:52;;;;;;;49.65;28.35;;;;;;;-0.35;96.93;101043.59;5015855;28;20022;-59
2021/12/03 02:06:19;;;;;;;51.43;30.47;;;;;;;-0.36;96.72;101049.72;5014493;28;20477;-59
2021/12/03 02:08:45;;;;;;;60.13;31.63;;;;;;;-0.34;97.22;101045.28;5015144;28;20516;-58
2021/12/03 02:11:12;;;;;;;60.30;32.13;;;;;;;-0.34;97.07;101055.72;5015548;28;20034;-59
2021/12/03 02:13:38;;;;;;;62.67;34.13;;;;;;;-0.33;97.53;101060.00;5013099;28;20067;-59
2021/12/03 02:16:05;;;;;;;71.57;35.30;;;;;;;-0.31;97.87;101065.94;5028712;28;20026;-58
2021/12/03 02:18:30;;;;;;;75.23;34.67;;;;;;;-0.32;97.57;101064.28;5020385;28;20041;-59
2021/12/03 02:20:58;;;;;;;80.77;36.70;;;;;;;-0.31;97.70;101065.94;5016522;28;20488;-58
2021/12/03 02:23:25;;;;;;;81.47;37.53;;;;;;;-0.26;97.67;101069.16;5021922;28;20495;-59
2021/12/03 02:25:50;;;;;;;87.03;38.53;;;;;;;-0.30;98.11;101065.03;5023947;28;20388;-58
2021/12/03 02:28:18;;;;;;;91.47;38.27;;;;;;;-0.23;97.54;101069.00;5023829;28;20029;-59
2021/12/03 02:30:44;;;;;;;94.43;39.37;;;;;;;-0.23;98.36;101050.75;5018080;28;20027;-59
2021/12/03 02:33:10;;;;;;;88.03;38.43;;;;;;;-0.18;97.60;101050.47;5015138;28;20029;-58
2021/12/03 02:35:39;;;;;;;87.50;36.90;;;;;;;-0.21;98.46;101051.47;5026351;28;20034;-59
2021/12/03 02:38:05;;;;;;;94.27;40.13;;;;;;;-0.18;98.45;101051.31;5015715;28;20037;-57
2021/12/03 02:40:30;;;;;;;83.87;39.37;;;;;;;-0.18;98.69;101046.13;5020278;28;20033;-58
2021/12/03 02:42:56;;;;;;;86.60;38.00;;;;;;;-0.18;98.81;101046.13;5012801;28;20030;-58
2021/12/03 02:45:21;;;;;;;87.07;40.30;;;;;;;-0.15;98.86;101045.94;5021464;28;20036;-58
2021/12/03 02:47:47;;;;;;;87.57;38.23;;;;;;;-0.16;98.81;101043.41;5029562;28;20022;-59
2021/12/03 02:50:14;;;;;;;79.63;38.03;;;;;;;-0.12;99.20;101039.69;5025650;28;20365;-59
2021/12/03 02:52:41;;;;;;;69.17;35.90;;;;;;;-0.09;99.26;101043.91;5014937;28;20078;-59
2021/12/03 02:55:07;;;;;;;69.53;36.90;;;;;;;-0.04;98.84;101047.09;5022643;28;20043;-59
2021/12/03 02:57:33;;;;;;;72.90;35.70;;;;;;;-0.04;99.11;101039.28;5021318;28;20037;-59
2021/12/03 02:59:58;;;;;;;69.53;36.83;;;;;;;-0.05;99.02;101045.41;5016932;28;20041;-59
2021/12/03 03:02:24;;;;;;;64.10;34.47;;;;;;;-0.03;98.96;101040.94;5019899;28;20038;-59
2021/12/03 03:04:50;;;;;;;61.03;33.73;;;;;;;0.01;98.44;101039.84;5025331;28;20029;-59
2021/12/03 03:07:16;;;;;;;62.67;33.70;;;;;;;0.01;99.28;101033.78;5025033;28;20415;-58
2021/12/03 03:09:44;;;;;;;69.23;33.10;;;;;;;0.00;99.18;101027.75;5025123;28;20087;-59
2021/12/03 03:12:11;;;;;;;66.57;33.33;;;;;;;-0.01;99.34;101026.03;5022278;28;20033;-59
2021/12/03 03:14:45;;;;;;;64.43;31.73;;;;;;;0.02;98.81;101031.09;5025050;28;20025;-59
2021/12/03 03:17:11;;;;;;;63.90;33.43;;;;;;;0.04;98.40;101020.59;5020111;28;20029;-59
2021/12/03 03:19:36;;;;;;;65.90;34.43;;;;;;;0.00;98.96;101017.31;5030927;28;20033;-59
2021/12/03 03:22:02;;;;;;;66.97;34.97;;;;;;;0.01;98.88;101013.78;5017188;28;20113;-59
2021/12/03 03:24:28;;;;;;;71.77;35.63;;;;;;;0.08;98.47;101020.31;5026986;28;20029;-58
2021/12/03 03:26:53;;;;;;;71.33;36.17;;;;;;;0.03;98.57;101019.75;5017257;28;20040;-59
2021/12/03 03:29:19;;;;;;;77.97;37.13;;;;;;;0.01;98.12;101024.22;5029891;28;20037;-59
2021/12/03 03:31:45;;;;;;;78.70;38.67;;;;;;;0.02;99.42;101025.88;5020615;28;20053;-59
2021/12/03 03:34:12;;;;;;;78.97;37.60;;;;;;;0.04;99.13;101034.44;5015959;28;20085;-59
2021/12/03 03:36:42;;;;;;;77.00;35.90;;;;;;;0.07;98.69;101029.06;5020292;28;20062;-59
2021/12/03 03:39:09;;;;;;;75.90;36.07;;;;;;;0.08;98.49;101020.31;5025353;28;20378;-59
2021/12/03 03:41:34;;;;;;;75.50;34.37;;;;;;;0.04;98.83;101023.19;5025822;28;20473;-58
2021/12/03 03:44:00;;;;;;;72.60;35.30;;;;;;;0.02;98.94;101031.09;5023798;28;20033;-58
2021/12/03 03:46:25;;;;;;;79.07;36.00;;;;;;;0.03;98.92;101029.31;5021249;28;20088;-59
2021/12/03 03:48:51;;;;;;;77.17;35.17;;;;;;;0.03;99.11;101019.75;5020767;28;20044;-59
2021/12/03 03:51:16;;;;;;;82.40;36.87;;;;;;;0.06;98.80;101021.31;5033675;28;20033;-59
2021/12/03 03:53:42;;;;;;;88.77;38.57;;;;;;;0.10;99.00;101015.84;5023083;28;20029;-59
2021/12/03 03:56:10;;;;;;;95.83;39.43;;;;;;;0.09;98.96;101016.78;5023993;28;20439;-59
2021/12/03 03:58:41;;;;;;;92.43;40.43;;;;;;;0.08;99.25;101022.06;5025801;28;20045;-59
2021/12/03 04:01:09;;;;;;;89.63;38.37;;;;;;;0.10;99.20;101007.19;5026622;28;20034;-59
2021/12/03 04:03:34;;;;;;;94.50;40.37;;;;;;;0.09;99.31;101019.38;5015986;28;20038;-59
2021/12/03 04:05:59;;;;;;;100.60;40.93;;;;;;;0.10;99.34;101013.22;5023025;28;20049;-59
2021/12/03 04:08:28;;;;;;;86.73;39.50;;;;;;;0.15;99.67;101004.31;5022779;28;20455;-59
2021/12/03 04:10:58;;;;;;;84.93;37.17;;;;;;;0.13;99.45;100997.41;5017409;28;20030;-59
2021/12/03 04:13:24;;;;;;;80.10;35.67;;;;;;;0.15;99.52;100999.09;5020752;28;20037;-58
2021/12/03 04:15:49;;;;;;;80.10;35.47;;;;;;;0.15;99.32;100991.28;5026557;28;20104;-59
2021/12/03 04:18:15;;;;;;;72.83;33.33;;;;;;;0.18;99.31;100988.47;5015137;28;20473;-59
2021/12/03 04:20:40;;;;;;;74.77;34.07;;;;;;;0.18;99.86;100988.47;5029118;28;20084;-59
2021/12/03 04:23:06;;;;;;;72.20;34.20;;;;;;;0.20;99.77;100991.84;5027814;28;20029;-59
2021/12/03 04:25:33;;;;;;;69.40;33.53;;;;;;;0.29;99.37;101000.91;5019918;28;20033;-59
2021/12/03 04:27:58;;;;;;;69.03;32.67;;;;;;;0.26;99.77;101001.91;5018767;28;20366;-59
2021/12/03 04:30:26;;;;;;;67.63;33.77;;;;;;;0.26;99.53;100991.47;5020438;28;20060;-59
2021/12/03 04:32:52;;;;;;;67.30;34.33;;;;;;;0.26;99.35;100991.47;5021455;28;20044;-59
2021/12/03 04:35:18;;;;;;;68.93;33.13;;;;;;;0.26;99.54;100986.25;5031014;28;20064;-59
2021/12/03 04:37:45;;;;;;;70.80;35.03;;;;;;;0.29;99.56;101003.50;5016670;28;20357;-59
2021/12/03 04:40:14;;;;;;;72.50;33.63;;;;;;;0.33;99.28;100992.78;5028200;28;20025;-59
2021/12/03 04:42:39;;;;;;;72.10;35.30;;;;;;;0.30;98.99;100990.34;5017115;28;20037;-58
2021/12/03 04:45:09;;;;;;;68.63;33.63;;;;;;;0.32;99.77;101001.56;5023701;28;20064;-59
2021/12/03 04:47:35;;;;;;;74.07;34.77;;;;;;;0.33;99.58;101018.88;5028265;28;20078;-58
2021/12/03 04:50:03;;;;;;;68.77;33.83;;;;;;;0.35;99.46;101001.34;5031259;28;20535;-59
2021/12/03 04:52:29;;;;;;;65.63;32.07;;;;;;;0.35;99.29;101006.56;5025682;28;20046;-58
2021/12/03 04:54:54;;;;;;;70.43;34.63;;;;;;;0.39;98.83;100997.66;5020187;28;20049;-59
2021/12/03 04:57:20;;;;;;;63.57;32.57;;;;;;;0.41;99.16;100992.34;5021669;28;20025;-58
2021/12/03 04:59:45;;;;;;;64.27;34.03;;;;;;;0.43;98.84;101007.91;5029807;28;20408;-59
2021/12/03 05:02:10;;;;;;;65.20;32.07;;;;;;;0.41;99.02;100989.72;5016651;28;20045;-59
2021/12/03 05:04:38;;;;;;;54.10;31.67;;;;;;;0.38;99.04;100985.53;5029775;28;20034;-59
2021/12/03 05:09:37;;;;;;;58.03;30.27;;;;;;;0.37;99.21;100986.47;5026539;28;20037;-59
2021/12/03 05:12:04;;;;;;;48.77;28.23;;;;;;;0.37;99.07;100983.00;5018085;28;20036;-59
2021/12/03 05:14:29;;;;;;;57.60;28.37;;;;;;;0.43;98.87;100967.00;5015216;28;20065;-58
2021/12/03 05:16:55;;;;;;;49.07;27.07;;;;;;;0.39;98.94;100976.78;5019534;28;20111;-58
2021/12/03 05:19:21;;;;;;;45.90;26.37;;;;;;;0.42;98.99;100967.06;5021771;28;20485;-59
2021/12/03 05:21:46;;;;;;;43.17;24.23;;;;;;;0.45;98.56;100959.06;5021237;28;20113;-59
2021/12/03 05:24:12;;;;;;;45.40;23.67;;;;;;;0.44;98.85;100957.41;5020452;28;20032;-59
2021/12/03 05:26:38;;;;;;;41.40;21.97;;;;;;;0.43;98.34;100968.78;5015859;28;20053;-59
2021/12/03 05:29:05;;;;;;;42.00;22.33;;;;;;;0.38;98.74;100962.06;5019648;28;20030;-59
2021/12/03 05:31:31;;;;;;;42.23;21.97;;;;;;;0.39;98.64;100968.94;5023356;28;20065;-59
2021/12/03 05:33:56;;;;;;;34.20;18.97;;;;;;;0.39;98.59;100968.94;5026850;28;20156;-58
2021/12/03 05:36:22;;;;;;;41.40;20.00;;;;;;;0.38;98.57;100975.09;5022335;28;20057;-59
2021/12/03 05:38:47;;;;;;;36.30;18.30;;;;;;;0.44;98.09;100983.50;5026958;28;20112;-59
2021/12/03 05:41:12;;;;;;;36.37;19.50;;;;;;;0.38;98.21;100980.31;5020739;28;20033;-59
2021/12/03 05:43:38;;;;;;;34.33;17.37;;;;;;;0.42;98.24;100977.50;5023270;28;20048;-59
2021/12/03 05:46:03;;;;;;;35.23;17.27;;;;;;;0.38;98.46;100977.72;5018994;28;20052;-58
2021/12/03 05:48:28;;;;;;;32.93;16.80;;;;;;;0.44;97.81;100983.50;5027223;28;20048;-58
2021/12/03 05:50:54;;;;;;;27.97;16.93;;;;;;;0.38;98.27;100988.16;5027057;28;20033;-58
2021/12/03 05:53:19;;;;;;;35.03;16.13;;;;;;;0.42;97.83;100985.34;5015168;28;20048;-59
2021/12/03 05:55:45;;;;;;;29.30;15.33;;;;;;;0.39;97.85;100979.38;5020663;28;20073;-58
2021/12/03 05:58:10;;;;;;;34.23;15.13;;;;;;;0.40;97.71;100983.66;5016119;28;20048;-58
2021/12/03 06:00:39;;;;;;;35.13;14.27;;;;;;;0.44;97.94;100983.50;5019428;28;20155;-58
2021/12/03 06:03:05;;;;;;;33.13;16.40;;;;;;;0.40;98.13;100983.66;5019164;28;20412;-59
2021/12/03 06:05:31;;;;;;;31.60;13.80;;;;;;;0.48;97.25;100979.75;5019558;28;20041;-58
2021/12/03 06:07:57;;;;;;;30.37;14.47;;;;;;;0.43;97.75;100981.81;5018929;28;20040;-58
2021/12/03 06:10:22;;;;;;;30.57;14.07;;;;;;;0.44;97.99;100978.28;5016327;28;20033;-59
2021/12/03 06:12:48;;;;;;;35.03;13.73;;;;;;;0.44;97.17;100978.28;5020578;28;20030;-57
2021/12/03 06:15:14;;;;;;;29.37;13.67;;;;;;;0.43;97.21;100977.44;5021874;28;20385;-58
2021/12/03 06:17:40;;;;;;;32.13;13.40;;;;;;;0.44;97.37;100963.44;5029305;28;20037;-59
2021/12/03 06:20:07;;;;;;;28.70;12.83;;;;;;;0.44;97.15;100973.06;5025325;28;20151;-59
2021/12/03 06:22:33;;;;;;;29.53;12.97;;;;;;;0.45;96.91;100969.50;5024973;28;20481;-59
2021/12/03 06:24:58;;;;;;;29.83;11.83;;;;;;;0.44;97.03;100967.84;5024664;28;20083;-59
2021/12/03 06:27:25;;;;;;;28.40;11.97;;;;;;;0.42;96.62;100961.84;5027975;28;20029;-58
2021/12/03 06:29:51;;;;;;;29.47;12.53;;;;;;;0.40;96.43;100962.78;5027151;28;20041;-59
2021/12/03 06:32:17;;;;;;;27.60;11.70;;;;;;;0.41;96.53;100961.03;5025839;28;20104;-59
2021/12/03 06:34:42;;;;;;;27.53;11.50;;;;;;;0.43;96.71;100953.13;5027553;28;20160;-58
2021/12/03 06:37:08;;;;;;;27.70;11.57;;;;;;;0.43;96.01;100960.94;5024711;28;20349;-59
2021/12/03 06:39:34;;;;;;;27.73;12.50;;;;;;;0.44;96.04;100967.84;5029686;28;20036;-58
2021/12/03 06:41:59;;;;;;;30.00;11.17;;;;;;;0.45;95.99;100959.06;5021706;28;20034;-58
2021/12/03 06:44:25;;;;;;;26.23;10.93;;;;;;;0.46;95.77;100965.97;5032357;28;20081;-59
2021/12/03 06:46:53;;;;;;;26.63;10.57;;;;;;;0.53;94.33;100956.84;5032097;28;20044;-58
2021/12/03 06:49:19;;;;;;;27.93;10.53;;;;;;;0.46;94.33;100965.97;5023610;28;20033;-59
2021/12/03 06:51:45;;;;;;;27.80;10.90;;;;;;;0.44;94.88;100962.63;5024927;28;20029;-59
2021/12/03 06:54:11;;;;;;;24.90;10.50;;;;;;;0.51;93.52;100962.16;5032075;28;20108;-58
2021/12/03 06:56:51;;;;;;;27.77;10.57;;;;;;;0.45;94.26;100974.72;5029687;28;20047;-59
2021/12/03 06:59:18;;;;;;;26.20;9.70;;;;;;;0.47;94.03;100972.84;5028438;28;20021;-59
2021/12/03 07:01:43;;;;;;;30.83;10.00;;;;;;;0.49;93.23;100976.22;5028122;28;20077;-59
2021/12/03 07:04:10;;;;;;;24.13;10.03;;;;;;;0.48;92.66;100977.16;5032291;28;20052;-58
2021/12/03 07:06:36;;;;;;;25.43;10.30;;;;;;;0.42;93.45;100977.50;5028157;28;20029;-59
2021/12/03 07:09:03;;;;;;;28.03;9.80;;;;;;;0.42;93.64;100972.28;5030424;28;20045;-59
2021/12/03 07:11:29;;;;;;;24.27;9.97;;;;;;;0.41;93.39;100963.66;5028726;28;20045;-59
2021/12/03 07:13:54;;;;;;;26.70;9.60;;;;;;;0.39;93.30;100963.72;5031838;28;20037;-58
2021/12/03 07:16:19;;;;;;;26.10;10.10;;;;;;;0.42;93.55;100967.06;5030552;28;20037;-58
2021/12/03 07:18:44;;;;;;;27.60;9.67;;;;;;;0.37;93.62;100957.78;5025326;28;20038;-59
2021/12/03 07:21:11;;;;;;;27.47;9.83;;;;;;;0.42;93.43;100959.25;5029408;28;20148;-59
2021/12/03 07:23:37;;;;;;;29.90;10.17;;;;;;;0.43;93.46;100953.13;5027887;28;20500;-59
2021/12/03 07:26:03;;;;;;;24.50;8.97;;;;;;;0.43;93.16;100935.69;5032767;28;20033;-59
2021/12/03 07:28:30;;;;;;;26.13;9.20;;;;;;;0.44;92.80;100936.53;5028129;28;20033;-59
2021/12/03 07:30:55;;;;;;;25.30;9.00;;;;;;;0.48;92.71;100938.00;5029379;28;20033;-58
2021/12/03 07:33:21;;;;;;;25.70;9.07;;;;;;;0.48;92.65;100927.56;5029207;28;20043;-59
2021/12/03 07:35:47;;;;;;;26.70;9.00;;;;;;;0.46;92.38;100929.44;5028480;28;20461;-59
2021/12/03 07:38:15;;;;;;;27.37;9.23;;;;;;;0.45;92.28;100938.19;5014731;28;20092;-58
2021/12/03 07:40:42;;;;;;;24.73;9.10;;;;;;;0.48;91.97;100935.41;5021984;28;20041;-59
2021/12/03 07:43:07;;;;;;;25.60;8.20;;;;;;;0.48;92.61;100948.44;5014566;28;20028;-59
2021/12/03 07:45:32;;;;;;;26.00;8.57;;;;;;;0.49;92.17;100947.53;5021295;28;20036;-56
2021/12/03 07:47:58;;;;;;;27.23;8.57;;;;;;;0.51;91.48;100950.88;5023551;28;20033;-52
2021/12/03 07:50:23;;;;;;;23.37;8.00;;;;;;;0.61;91.40;100940.72;5023920;28;20131;-56
2021/12/03 07:52:48;;;;;;;22.60;8.27;;;;;;;0.56;91.67;100933.16;5024929;28;20033;-56
2021/12/03 07:55:14;;;;;;;25.03;8.07;;;;;;;0.58;91.70;100931.28;5023522;28;20041;-59
2021/12/03 07:57:39;;;;;;;22.93;7.80;;;;;;;0.60;91.22;100932.03;5022208;28;20040;-59
2021/12/03 08:00:07;;;;;;;24.73;7.90;;;;;;;0.58;91.68;100933.91;5022754;28;20389;-59
2021/12/03 08:02:32;;;;;;;25.23;8.17;;;;;;;0.60;91.86;100941.66;5020970;28;20054;-59
2021/12/03 08:04:57;;;;;;;27.63;8.00;;;;;;;0.57;92.27;100932.22;5025377;28;20060;-59
2021/12/03 08:07:22;;;;;;;28.87;7.63;;;;;;;0.58;92.12;100936.53;5024086;28;20029;-59
2021/12/03 08:09:48;;;;;;;25.60;8.10;;;;;;;0.59;92.41;100939.97;5014351;28;20393;-59
2021/12/03 08:12:13;;;;;;;26.70;7.67;;;;;;;0.62;92.30;100918.91;5014188;28;20025;-59
2021/12/03 08:14:39;;;;;;;25.80;7.93;;;;;;;0.61;91.88;100933.72;5019681;28;20033;-58
2021/12/03 08:17:04;;;;;;;27.37;8.47;;;;;;;0.64;91.74;100935.31;5021650;28;20095;-58
2021/12/03 08:19:29;;;;;;;31.83;7.70;;;;;;;0.61;91.71;100930.28;5024647;28;20056;-58
2021/12/03 08:21:55;;;;;;;26.43;7.67;;;;;;;0.61;92.57;100917.22;5028035;28;20034;-59
2021/12/03 08:24:20;;;;;;;24.47;7.60;;;;;;;0.71;91.84;100922.72;5015462;28;20048;-59
2021/12/03 08:26:45;;;;;;;30.33;8.23;;;;;;;0.69;92.17;100929.81;5019182;28;20041;-59
2021/12/03 08:29:11;;;;;;;28.13;7.43;;;;;;;0.70;92.01;100923.66;5027216;28;20160;-59
2021/12/03 08:31:39;;;;;;;28.43;7.67;;;;;;;0.70;91.95;100934.09;5019824;28;20468;-60
2021/12/03 08:34:04;;;;;;;25.20;7.43;;;;;;;0.72;92.39;100925.22;5027243;28;20041;-59
2021/12/03 08:36:30;;;;;;;23.83;6.83;;;;;;;0.79;91.39;100936.97;5017845;28;20137;-59
2021/12/03 08:38:55;;;;;;;22.30;6.70;;;;;;;0.84;91.39;100923.63;5026919;28;20021;-59
2021/12/03 08:41:20;;;;;;;22.63;6.93;;;;;;;0.82;91.70;100930.72;5021326;28;20026;-59
2021/12/03 08:43:48;;;;;;;25.87;6.60;;;;;;;0.82;91.28;100922.88;5020224;28;20045;-59
2021/12/03 08:46:19;;;;;;;25.67;6.70;;;;;;;0.83;91.58;100932.38;5033244;28;20478;-57
2021/12/03 08:48:47;;;;;;;24.63;7.10;;;;;;;0.82;91.82;100935.94;5025522;28;20167;-59
2021/12/03 08:56:21;;;;;;;22.50;6.83;;;;;;;0.88;91.31;100912.06;5018404;28;20041;-59
2021/12/03 08:58:47;;;;;;;24.43;6.30;;;;;;;0.91;91.66;100914.50;5018453;28;20033;-58
2021/12/03 09:01:13;;;;;;;26.53;7.40;;;;;;;0.91;91.78;100906.66;5031058;28;20409;-59
2021/12/03 09:03:39;;;;;;;24.80;6.97;;;;;;;0.93;91.48;100904.78;5017754;28;20030;-58
2021/12/03 09:06:04;;;;;;;22.90;7.03;;;;;;;0.96;91.59;100908.13;5021815;28;20090;-58
2021/12/03 09:08:30;;;;;;;22.10;6.70;;;;;;;0.98;91.81;100903.66;5029204;28;20033;-59
2021/12/03 09:10:55;;;;;;;26.60;6.83;;;;;;;1.01;91.84;100924.34;5027836;28;20033;-59
2021/12/03 09:13:21;;;;;;;24.37;6.77;;;;;;;1.05;91.58;100913.59;5023174;28;20030;-59
2021/12/03 09:16:08;;;;;;;24.53;6.80;;;;;;;1.05;91.59;100916.19;5021189;28;20038;-59
2021/12/03 09:18:36;;;;;;;24.33;6.80;;;;;;;1.07;91.75;100910.88;5013376;28;20084;-59
2021/12/03 09:21:09;;;;;;;29.70;7.23;;;;;;;1.11;91.65;100915.00;5021471;28;20029;-58
2021/12/03 09:23:41;;;;;;;25.77;7.47;;;;;;;1.16;91.42;100899.00;5022918;28;20058;-58
2021/12/03 09:26:09;;;;;;;30.38;7.90;;;;;;;1.17;92.03;100893.69;5025873;28;20065;-59
2021/12/03 09:28:36;;;;;;;23.60;7.63;;;;;;;1.22;91.57;100897.81;5017082;28;20029;-58
2021/12/03 09:31:02;;;;;;;31.90;7.70;;;;;;;1.22;91.86;100900.41;5023811;28;20017;-58
2021/12/03 09:33:29;;;;;;;31.20;8.13;;;;;;;1.25;91.63;100900.19;5020574;28;20121;-57
2021/12/03 09:35:59;;;;;;;25.57;7.77;;;;;;;1.30;91.54;100892.91;5019413;28;20038;-58
2021/12/03 09:38:27;;;;;;;31.90;7.70;;;;;;;1.36;91.78;100902.97;5023222;28;20040;-59
2021/12/03 09:40:53;;;;;;;23.33;7.73;;;;;;;1.36;91.97;100897.72;5030111;28;20029;-59
2021/12/03 09:43:18;;;;;;;28.97;7.70;;;;;;;1.40;91.60;100896.59;5037356;28;20021;-58
2021/12/03 09:46:02;;;;;;;25.57;7.43;;;;;;;1.43;91.32;100893.78;5026697;28;20148;-59
2021/12/03 09:48:36;;;;;;;25.93;7.43;;;;;;;1.43;91.70;100888.53;5021207;28;20141;-58
2021/12/03 09:51:02;;;;;;;25.87;7.00;;;;;;;1.46;91.85;100877.91;5037355;28;20025;-59
2021/12/03 09:53:44;;;;;;;23.20;6.73;;;;;;;1.46;92.06;100877.06;5029171;28;20025;-58
2021/12/03 09:56:11;;;;;;;21.43;6.80;;;;;;;1.53;91.35;100867.03;5024003;28;20042;-58
2021/12/03 09:59:09;;;;;;;23.77;6.40;;;;;;;1.52;91.59;100854.91;5024681;28;20044;-58
2021/12/03 10:01:36;;;;;;;25.13;6.90;;;;;;;1.48;91.96;100857.72;5022472;28;20077;-59
2021/12/03 10:04:58;;;;;;;25.60;7.20;;;;;;;1.48;92.16;100859.50;5019802;28;20109;-59
2021/12/03 10:10:20;;;;;;;22.30;6.33;;;;;;;1.58;91.79;100860.56;5020413;28;20037;-58
2021/12/03 10:12:50;;;;;;;20.07;6.33;;;;;;;1.58;91.63;100846.66;5026276;28;20107;-59
2021/12/03 10:17:59;;;;;;;24.67;6.77;;;;;;;1.64;91.75;100848.03;5025597;28;20120;-58
2021/12/03 10:24:02;;;;;;;27.40;7.20;;;;;;;1.68;91.97;100832.03;5024857;28;20125;-59
2021/12/03 10:26:41;;;;;;;20.57;6.60;;;;;;;1.74;91.47;100829.00;5017507;28;20038;-59
2021/12/03 10:29:16;;;;;;;;;;;;;;;1.81;91.60;100818.97;5017969;28;20053;-59
2021/12/03 10:35:00;;;;;;;23.60;6.83;;;;;;;1.82;91.12;100799.72;5020121;28;20030;-58
2021/12/03 10:37:47;;;;;;;22.67;6.57;;;;;;;1.86;91.26;100798.56;5024114;28;20046;-58
2021/12/03 10:46:02;;;;;;;19.03;6.77;;;;;;;1.94;91.07;100782.34;5024007;28;20104;-58
2021/12/03 10:48:52;;;;;;;22.10;7.00;;;;;;;1.97;90.65;100784.75;5016389;28;20030;-59
2021/12/03 10:53:58;;;;;;;19.33;7.30;;;;;;;2.03;90.35;100764.34;5033429;28;20041;-59
2021/12/03 10:56:59;;;;;;;19.53;7.37;;;;;;;2.05;90.54;100751.97;5033580;28;20033;-58
2021/12/03 11:08:08;;;;;;;21.30;8.50;;;;;;;2.26;89.87;100729.53;5032488;28;20042;-59
2021/12/03 11:13:53;;;;;;;19.53;7.93;;;;;;;2.31;89.14;100731.00;5024286;28;20107;-57
2021/12/03 11:19:56;;;;;;;24.67;8.03;;;;;;;2.37;89.50;100727.94;5020604;28;20524;-56
2021/12/03 11:25:38;;;;;;;20.33;8.40;;;;;;;2.41;89.45;100711.03;5023946;28;20045;-56
2021/12/03 11:31:12;;;;;;;20.57;7.57;;;;;;;2.51;88.72;100680.63;5008190;28;20037;-56
2021/12/03 11:39:25;;;;;;;16.30;6.70;;;;;;;2.63;87.20;100668.44;5028123;28;20042;-59
2021/12/03 12:05:53;;;;;;;19.93;6.67;;;;;;;2.95;85.56;100635.53;5028980;28;20068;-58
2021/12/03 12:11:37;;;;;;;21.88;6.43;;;;;;;3.05;85.24;100615.53;5032299;28;20041;-57
2021/12/03 12:16:35;;;;;;;20.57;6.53;;;;;;;3.06;84.68;100622.44;5026010;28;20053;-58
2021/12/03 13:06:19;;;;;;;12.48;4.30;;;;;;;3.28;80.61;100531.69;5025296;28;20065;-60
2021/12/03 13:21:22;;;;;;;8.73;4.20;;;;;;;3.29;80.45;100525.50;5030006;28;20116;-61
2021/12/03 13:36:01;;;;;;;10.35;4.15;;;;;;;3.42;79.55;100511.41;5027783;28;20068;-59
2021/12/03 13:58:25;;;;;;;10.80;4.10;;;;;;;3.21;83.78;100472.84;5022983;28;20044;-60
2021/12/03 14:03:31;;;;;;;8.73;4.03;;;;;;;3.11;83.95;100482.41;5020029;28;20700;-60
2021/12/03 14:12:06;;;;;;;9.90;4.10;;;;;;;3.12;83.81;100463.09;5015421;28;20480;-60
2021/12/03 14:24:47;;;;;;;9.55;4.07;;;;;;;3.09;85.59;100454.53;5026008;28;20075;-58
2021/12/03 14:44:33;;;;;;;11.60;4.50;;;;;;;2.99;87.55;100453.59;5021241;28;20033;-61
2021/12/03 14:47:35;;;;;;;9.67;4.70;;;;;;;2.96;87.86;100459.06;5029648;28;20083;-60
2021/12/03 14:52:46;;;;;;;11.77;4.82;;;;;;;2.98;88.01;100467.66;5011476;28;20107;-61
2021/12/03 14:55:25;;;;;;;13.55;5.10;;;;;;;2.98;88.32;100462.41;5020591;28;20022;-59
2021/12/03 14:57:56;;;;;;;9.73;4.87;;;;;;;2.96;87.95;100459.06;5028035;28;20061;-57